sensor_id;sensor_type;location;lat;lon;timestamp;temperature;humidity
21310;DHT22;10814;51.722;8.772;2024-03-08T00:00:16;3.20;99.90
21310;DHT22;10814;51.722;8.772;2024-03-08T00:02:44;3.20;99.90
21310;DHT22;10814;51.722;8.772;2024-03-08T00:05:11;3.20;99.90
21310;DHT22;10814;51.722;8.772;2024-03-08T00:07:41;3.20;99.90
21310;DHT22;10814;51.722;8.772;2024-03-08T00:10:09;3.20;99.90
21310;DHT22;10814;51.722;8.772;2024-03-08T00:12:42;3.20;99.90
21310;DHT22;10814;51.722;8.772;2024-03-08T00:15:13;3.20;99.90
21310;DHT22;10814;51.722;8.772;2024-03-08T00:17:40;3.20;99.90
21310;DHT22;10814;51.722;8.772;2024-03-08T00:20:06;3.20;99.90
21310;DHT22;10814;51.722;8.772;2024-03-08T00:22:39;3.20;99.90
21310;DHT22;10814;51.722;8.772;2024-03-08T00:25:07;3.20;99.90
21310;DHT22;10814;51.722;8.772;2024-03-08T00:27:36;3.20;99.90
21310;DHT22;10814;51.722;8.772;2024-03-08T00:30:02;3.20;99.90
21310;DHT22;10814;51.722;8.772;2024-03-08T00:32:28;3.10;99.90
21310;DHT22;10814;51.722;8.772;2024-03-08T00:34:54;3.10;99.90
21310;DHT22;10814;51.722;8.772;2024-03-08T00:37:22;3.10;99.90
21310;DHT22;10814;51.722;8.772;2024-03-08T00:39:51;3.10;99.90
21310;DHT22;10814;51.722;8.772;2024-03-08T00:42:20;3.10;99.90
21310;DHT22;10814;51.722;8.772;2024-03-08T00:44:46;3.00;99.90
21310;DHT22;10814;51.722;8.772;2024-03-08T00:47:12;3.00;99.90
21310;DHT22;10814;51.722;8.772;2024-03-08T00:49:38;3.00;99.90
21310;DHT22;10814;51.722;8.772;2024-03-08T00:52:06;3.00;99.90
21310;DHT22;10814;51.722;8.772;2024-03-08T00:54:33;3.00;99.90
21310;DHT22;10814;51.722;8.772;2024-03-08T00:56:58;3.00;99.90
21310;DHT22;10814;51.722;8.772;2024-03-08T00:59:28;3.00;99.90
21310;DHT22;10814;51.722;8.772;2024-03-08T01:01:54;3.00;99.90
21310;DHT22;10814;51.722;8.772;2024-03-08T01:04:20;3.00;99.90
21310;DHT22;10814;51.722;8.772;2024-03-08T01:06:46;3.10;99.90
21310;DHT22;10814;51.722;8.772;2024-03-08T01:09:14;3.00;99.90
21310;DHT22;10814;51.722;8.772;2024-03-08T01:11:42;3.00;99.90
21310;DHT22;10814;51.722;8.772;2024-03-08T01:14:08;3.00;99.90
21310;DHT22;10814;51.722;8.772;2024-03-08T01:16:34;3.10;99.90
21310;DHT22;10814;51.722;8.772;2024-03-08T01:19:00;3.00;99.90
21310;DHT22;10814;51.722;8.772;2024-03-08T01:21:25;3.00;99.90
21310;DHT22;10814;51.722;8.772;2024-03-08T01:23:51;3.00;99.90
21310;DHT22;10814;51.722;8.772;2024-03-08T01:26:16;3.10;99.90
21310;DHT22;10814;51.722;8.772;2024-03-08T01:28:42;3.10;99.90
21310;DHT22;10814;51.722;8.772;2024-03-08T01:31:08;3.10;99.90
21310;DHT22;10814;51.722;8.772;2024-03-08T01:33:33;3.00;99.90
21310;DHT22;10814;51.722;8.772;2024-03-08T01:35:59;3.00;99.90
21310;DHT22;10814;51.722;8.772;2024-03-08T01:38:24;3.00;99.90
21310;DHT22;10814;51.722;8.772;2024-03-08T01:40:50;3.10;99.90
21310;DHT22;10814;51.722;8.772;2024-03-08T01:43:20;3.00;99.90
21310;DHT22;10814;51.722;8.772;2024-03-08T01:45:46;3.00;99.90
21310;DHT22;10814;51.722;8.772;2024-03-08T01:48:12;3.00;99.90
21310;DHT22;10814;51.722;8.772;2024-03-08T01:50:38;3.00;99.90
21310;DHT22;10814;51.722;8.772;2024-03-08T01:53:05;3.00;99.90
21310;DHT22;10814;51.722;8.772;2024-03-08T01:55:31;3.00;99.90
21310;DHT22;10814;51.722;8.772;2024-03-08T01:57:58;3.00;99.90
21310;DHT22;10814;51.722;8.772;2024-03-08T02:00:25;3.00;99.90
21310;DHT22;10814;51.722;8.772;2024-03-08T02:02:54;2.90;99.90
21310;DHT22;10814;51.722;8.772;2024-03-08T02:05:20;2.90;99.90
21310;DHT22;10814;51.722;8.772;2024-03-08T02:07:46;2.90;99.90
21310;DHT22;10814;51.722;8.772;2024-03-08T02:10:12;2.90;99.90
21310;DHT22;10814;51.722;8.772;2024-03-08T02:12:38;2.90;99.90
21310;DHT22;10814;51.722;8.772;2024-03-08T02:15:04;2.80;99.90
21310;DHT22;10814;51.722;8.772;2024-03-08T02:17:32;2.80;99.90
21310;DHT22;10814;51.722;8.772;2024-03-08T02:19:59;2.80;99.90
21310;DHT22;10814;51.722;8.772;2024-03-08T02:22:27;2.80;99.90
21310;DHT22;10814;51.722;8.772;2024-03-08T02:24:54;2.80;99.90
21310;DHT22;10814;51.722;8.772;2024-03-08T02:27:24;2.80;99.90
21310;DHT22;10814;51.722;8.772;2024-03-08T02:29:57;2.80;99.90
21310;DHT22;10814;51.722;8.772;2024-03-08T02:32:23;2.80;99.90
21310;DHT22;10814;51.722;8.772;2024-03-08T02:34:49;2.70;99.90
21310;DHT22;10814;51.722;8.772;2024-03-08T02:37:18;2.70;99.90
21310;DHT22;10814;51.722;8.772;2024-03-08T02:39:44;2.70;99.90
21310;DHT22;10814;51.722;8.772;2024-03-08T02:42:12;2.70;99.90
21310;DHT22;10814;51.722;8.772;2024-03-08T02:44:42;2.70;99.90
21310;DHT22;10814;51.722;8.772;2024-03-08T02:47:09;2.60;99.90
21310;DHT22;10814;51.722;8.772;2024-03-08T02:49:35;2.70;99.90
21310;DHT22;10814;51.722;8.772;2024-03-08T02:52:02;2.60;99.90
21310;DHT22;10814;51.722;8.772;2024-03-08T02:54:28;2.60;99.90
21310;DHT22;10814;51.722;8.772;2024-03-08T02:56:53;2.60;99.90
21310;DHT22;10814;51.722;8.772;2024-03-08T02:59:19;2.60;99.90
21310;DHT22;10814;51.722;8.772;2024-03-08T03:01:44;2.60;99.90
21310;DHT22;10814;51.722;8.772;2024-03-08T03:04:11;2.50;99.90
21310;DHT22;10814;51.722;8.772;2024-03-08T03:06:36;2.50;99.90
21310;DHT22;10814;51.722;8.772;2024-03-08T03:09:02;2.50;99.90
21310;DHT22;10814;51.722;8.772;2024-03-08T03:11:28;2.50;99.90
21310;DHT22;10814;51.722;8.772;2024-03-08T03:13:53;2.40;99.90
21310;DHT22;10814;51.722;8.772;2024-03-08T03:16:19;2.40;99.90
21310;DHT22;10814;51.722;8.772;2024-03-08T03:18:46;2.40;99.90
21310;DHT22;10814;51.722;8.772;2024-03-08T03:21:12;2.40;99.90
21310;DHT22;10814;51.722;8.772;2024-03-08T03:23:39;2.40;99.90
21310;DHT22;10814;51.722;8.772;2024-03-08T03:26:05;2.40;99.90
21310;DHT22;10814;51.722;8.772;2024-03-08T03:28:33;2.40;99.90
21310;DHT22;10814;51.722;8.772;2024-03-08T03:30:59;2.40;99.90
21310;DHT22;10814;51.722;8.772;2024-03-08T03:33:25;2.30;99.90
21310;DHT22;10814;51.722;8.772;2024-03-08T03:35:50;2.40;99.90
21310;DHT22;10814;51.722;8.772;2024-03-08T03:38:17;2.40;99.90
21310;DHT22;10814;51.722;8.772;2024-03-08T03:40:45;2.30;99.90
21310;DHT22;10814;51.722;8.772;2024-03-08T03:43:11;2.20;99.90
21310;DHT22;10814;51.722;8.772;2024-03-08T03:45:38;2.20;99.90
21310;DHT22;10814;51.722;8.772;2024-03-08T03:48:05;2.10;99.90
21310;DHT22;10814;51.722;8.772;2024-03-08T03:50:32;2.10;99.90
21310;DHT22;10814;51.722;8.772;2024-03-08T03:53:00;2.20;99.90
21310;DHT22;10814;51.722;8.772;2024-03-08T03:55:25;2.20;99.90
21310;DHT22;10814;51.722;8.772;2024-03-08T03:57:52;2.20;99.90
21310;DHT22;10814;51.722;8.772;2024-03-08T04:00:18;2.20;99.90
21310;DHT22;10814;51.722;8.772;2024-03-08T04:02:44;2.10;99.90
21310;DHT22;10814;51.722;8.772;2024-03-08T04:05:10;2.00;99.90
21310;DHT22;10814;51.722;8.772;2024-03-08T04:07:37;2.00;99.90
21310;DHT22;10814;51.722;8.772;2024-03-08T04:10:03;2.00;99.90
21310;DHT22;10814;51.722;8.772;2024-03-08T04:12:29;2.00;99.90
21310;DHT22;10814;51.722;8.772;2024-03-08T04:14:55;2.00;99.90
21310;DHT22;10814;51.722;8.772;2024-03-08T04:17:21;1.90;99.90
21310;DHT22;10814;51.722;8.772;2024-03-08T04:19:47;1.90;99.90
21310;DHT22;10814;51.722;8.772;2024-03-08T04:22:14;1.90;99.90
21310;DHT22;10814;51.722;8.772;2024-03-08T04:24:39;2.00;99.90
21310;DHT22;10814;51.722;8.772;2024-03-08T04:27:06;2.00;99.90
21310;DHT22;10814;51.722;8.772;2024-03-08T04:29:32;1.90;99.90
21310;DHT22;10814;51.722;8.772;2024-03-08T04:31:58;1.90;99.90
21310;DHT22;10814;51.722;8.772;2024-03-08T04:34:24;2.00;99.90
21310;DHT22;10814;51.722;8.772;2024-03-08T04:36:50;2.00;99.90
21310;DHT22;10814;51.722;8.772;2024-03-08T04:39:15;2.00;99.90
21310;DHT22;10814;51.722;8.772;2024-03-08T04:41:41;2.00;99.90
21310;DHT22;10814;51.722;8.772;2024-03-08T04:44:09;2.00;99.90
21310;DHT22;10814;51.722;8.772;2024-03-08T04:46:35;2.00;99.90
21310;DHT22;10814;51.722;8.772;2024-03-08T04:49:01;1.90;99.90
21310;DHT22;10814;51.722;8.772;2024-03-08T04:51:26;1.90;99.90
21310;DHT22;10814;51.722;8.772;2024-03-08T04:53:52;1.90;99.90
21310;DHT22;10814;51.722;8.772;2024-03-08T04:56:18;2.00;99.90
21310;DHT22;10814;51.722;8.772;2024-03-08T04:58:45;1.90;99.90
21310;DHT22;10814;51.722;8.772;2024-03-08T05:01:12;1.90;99.90
21310;DHT22;10814;51.722;8.772;2024-03-08T05:03:38;1.90;99.90
21310;DHT22;10814;51.722;8.772;2024-03-08T05:06:04;1.90;99.90
21310;DHT22;10814;51.722;8.772;2024-03-08T05:08:30;1.90;99.90
21310;DHT22;10814;51.722;8.772;2024-03-08T05:10:56;1.90;99.90
21310;DHT22;10814;51.722;8.772;2024-03-08T05:13:22;1.90;99.90
21310;DHT22;10814;51.722;8.772;2024-03-08T05:15:49;1.90;99.90
21310;DHT22;10814;51.722;8.772;2024-03-08T05:18:15;1.90;99.90
21310;DHT22;10814;51.722;8.772;2024-03-08T05:20:41;1.80;99.90
21310;DHT22;10814;51.722;8.772;2024-03-08T05:23:07;1.80;99.90
21310;DHT22;10814;51.722;8.772;2024-03-08T05:25:33;1.90;99.90
21310;DHT22;10814;51.722;8.772;2024-03-08T05:27:59;1.90;99.90
21310;DHT22;10814;51.722;8.772;2024-03-08T05:30:25;1.80;99.90
21310;DHT22;10814;51.722;8.772;2024-03-08T05:32:50;1.80;99.90
21310;DHT22;10814;51.722;8.772;2024-03-08T05:35:16;1.80;99.90
21310;DHT22;10814;51.722;8.772;2024-03-08T05:37:42;1.80;99.90
21310;DHT22;10814;51.722;8.772;2024-03-08T05:40:10;1.80;99.90
21310;DHT22;10814;51.722;8.772;2024-03-08T05:42:36;1.80;99.90
21310;DHT22;10814;51.722;8.772;2024-03-08T05:45:05;1.80;99.90
21310;DHT22;10814;51.722;8.772;2024-03-08T05:47:35;1.80;99.90
21310;DHT22;10814;51.722;8.772;2024-03-08T05:50:01;1.80;99.90
21310;DHT22;10814;51.722;8.772;2024-03-08T05:52:27;1.80;99.90
21310;DHT22;10814;51.722;8.772;2024-03-08T05:54:52;1.80;99.90
21310;DHT22;10814;51.722;8.772;2024-03-08T05:57:18;1.80;99.90
21310;DHT22;10814;51.722;8.772;2024-03-08T05:59:44;1.80;99.90
21310;DHT22;10814;51.722;8.772;2024-03-08T06:02:10;1.90;99.90
21310;DHT22;10814;51.722;8.772;2024-03-08T06:04:35;1.80;99.90
21310;DHT22;10814;51.722;8.772;2024-03-08T06:07:01;1.80;99.90
21310;DHT22;10814;51.722;8.772;2024-03-08T06:09:28;1.70;99.90
21310;DHT22;10814;51.722;8.772;2024-03-08T06:11:54;1.80;99.90
21310;DHT22;10814;51.722;8.772;2024-03-08T06:14:20;1.80;99.90
21310;DHT22;10814;51.722;8.772;2024-03-08T06:16:46;1.80;99.90
21310;DHT22;10814;51.722;8.772;2024-03-08T06:19:13;1.90;99.90
21310;DHT22;10814;51.722;8.772;2024-03-08T06:21:39;2.00;99.90
21310;DHT22;10814;51.722;8.772;2024-03-08T06:24:05;1.90;99.90
21310;DHT22;10814;51.722;8.772;2024-03-08T06:26:30;2.00;99.90
21310;DHT22;10814;51.722;8.772;2024-03-08T06:28:56;2.00;99.90
21310;DHT22;10814;51.722;8.772;2024-03-08T06:31:22;2.00;99.90
21310;DHT22;10814;51.722;8.772;2024-03-08T06:33:48;2.00;99.90
21310;DHT22;10814;51.722;8.772;2024-03-08T06:36:16;2.00;99.90
21310;DHT22;10814;51.722;8.772;2024-03-08T06:38:50;2.10;99.90
21310;DHT22;10814;51.722;8.772;2024-03-08T06:41:16;2.10;99.90
21310;DHT22;10814;51.722;8.772;2024-03-08T06:43:47;2.20;99.90
21310;DHT22;10814;51.722;8.772;2024-03-08T06:46:15;2.30;99.90
21310;DHT22;10814;51.722;8.772;2024-03-08T06:48:40;2.50;99.90
21310;DHT22;10814;51.722;8.772;2024-03-08T06:51:06;2.70;99.90
21310;DHT22;10814;51.722;8.772;2024-03-08T06:53:32;3.00;99.90
21310;DHT22;10814;51.722;8.772;2024-03-08T06:55:58;3.30;99.90
21310;DHT22;10814;51.722;8.772;2024-03-08T06:58:24;3.40;99.90
21310;DHT22;10814;51.722;8.772;2024-03-08T07:00:50;3.60;99.90
21310;DHT22;10814;51.722;8.772;2024-03-08T07:03:18;3.80;99.90
21310;DHT22;10814;51.722;8.772;2024-03-08T07:05:44;4.00;99.90
21310;DHT22;10814;51.722;8.772;2024-03-08T07:08:10;4.20;99.90
21310;DHT22;10814;51.722;8.772;2024-03-08T07:10:38;4.30;99.90
21310;DHT22;10814;51.722;8.772;2024-03-08T07:13:07;4.40;99.90
21310;DHT22;10814;51.722;8.772;2024-03-08T07:15:35;4.60;99.90
21310;DHT22;10814;51.722;8.772;2024-03-08T07:18:01;4.80;99.90
21310;DHT22;10814;51.722;8.772;2024-03-08T07:20:27;5.00;99.90
21310;DHT22;10814;51.722;8.772;2024-03-08T07:22:54;5.30;99.90
21310;DHT22;10814;51.722;8.772;2024-03-08T07:25:19;5.50;99.90
21310;DHT22;10814;51.722;8.772;2024-03-08T07:27:52;5.70;99.90
21310;DHT22;10814;51.722;8.772;2024-03-08T07:30:19;5.90;99.90
21310;DHT22;10814;51.722;8.772;2024-03-08T07:33:04;6.00;99.90
21310;DHT22;10814;51.722;8.772;2024-03-08T07:35:30;6.10;99.90
21310;DHT22;10814;51.722;8.772;2024-03-08T07:37:56;6.20;99.90
21310;DHT22;10814;51.722;8.772;2024-03-08T07:40:22;6.10;99.90
21310;DHT22;10814;51.722;8.772;2024-03-08T07:42:51;6.10;99.90
21310;DHT22;10814;51.722;8.772;2024-03-08T07:45:17;6.10;99.90
21310;DHT22;10814;51.722;8.772;2024-03-08T07:47:43;6.30;99.90
21310;DHT22;10814;51.722;8.772;2024-03-08T07:50:09;6.40;99.90
21310;DHT22;10814;51.722;8.772;2024-03-08T07:52:35;6.50;99.90
21310;DHT22;10814;51.722;8.772;2024-03-08T07:55:02;6.60;99.90
21310;DHT22;10814;51.722;8.772;2024-03-08T07:57:29;6.80;99.90
21310;DHT22;10814;51.722;8.772;2024-03-08T07:59:55;6.90;99.90
21310;DHT22;10814;51.722;8.772;2024-03-08T08:02:21;7.20;99.90
21310;DHT22;10814;51.722;8.772;2024-03-08T08:04:46;7.00;99.90
21310;DHT22;10814;51.722;8.772;2024-03-08T08:07:12;6.90;99.90
21310;DHT22;10814;51.722;8.772;2024-03-08T08:09:38;6.80;99.90
21310;DHT22;10814;51.722;8.772;2024-03-08T08:12:04;6.90;99.90
21310;DHT22;10814;51.722;8.772;2024-03-08T08:14:30;7.10;99.90
21310;DHT22;10814;51.722;8.772;2024-03-08T08:16:56;7.00;99.90
21310;DHT22;10814;51.722;8.772;2024-03-08T08:19:23;7.10;99.90
21310;DHT22;10814;51.722;8.772;2024-03-08T08:21:48;7.10;99.90
21310;DHT22;10814;51.722;8.772;2024-03-08T08:24:14;7.30;99.90
21310;DHT22;10814;51.722;8.772;2024-03-08T08:26:40;7.50;99.90
21310;DHT22;10814;51.722;8.772;2024-03-08T08:29:06;7.60;99.90
21310;DHT22;10814;51.722;8.772;2024-03-08T08:31:32;7.70;99.90
21310;DHT22;10814;51.722;8.772;2024-03-08T08:33:58;7.60;99.90
21310;DHT22;10814;51.722;8.772;2024-03-08T08:36:25;7.30;99.90
21310;DHT22;10814;51.722;8.772;2024-03-08T08:38:51;7.50;99.90
21310;DHT22;10814;51.722;8.772;2024-03-08T08:41:19;7.80;99.90
21310;DHT22;10814;51.722;8.772;2024-03-08T08:43:47;8.10;99.90
21310;DHT22;10814;51.722;8.772;2024-03-08T08:46:17;8.50;99.90
21310;DHT22;10814;51.722;8.772;2024-03-08T08:48:42;8.60;99.90
21310;DHT22;10814;51.722;8.772;2024-03-08T08:51:13;8.70;99.90
21310;DHT22;10814;51.722;8.772;2024-03-08T08:53:39;8.80;99.90
21310;DHT22;10814;51.722;8.772;2024-03-08T08:56:10;8.60;99.90
21310;DHT22;10814;51.722;8.772;2024-03-08T08:58:39;8.60;99.90
21310;DHT22;10814;51.722;8.772;2024-03-08T09:01:05;8.70;99.90
21310;DHT22;10814;51.722;8.772;2024-03-08T09:03:31;8.60;99.90
21310;DHT22;10814;51.722;8.772;2024-03-08T09:05:56;8.50;99.90
21310;DHT22;10814;51.722;8.772;2024-03-08T09:08:22;8.60;99.90
21310;DHT22;10814;51.722;8.772;2024-03-08T09:10:48;8.70;99.90
21310;DHT22;10814;51.722;8.772;2024-03-08T09:13:14;8.60;99.90
21310;DHT22;10814;51.722;8.772;2024-03-08T09:15:39;8.70;99.90
21310;DHT22;10814;51.722;8.772;2024-03-08T09:18:07;9.00;99.90
21310;DHT22;10814;51.722;8.772;2024-03-08T09:20:33;9.30;99.90
21310;DHT22;10814;51.722;8.772;2024-03-08T09:22:59;9.30;99.90
21310;DHT22;10814;51.722;8.772;2024-03-08T09:25:25;9.60;99.90
21310;DHT22;10814;51.722;8.772;2024-03-08T09:27:51;9.60;99.90
21310;DHT22;10814;51.722;8.772;2024-03-08T09:30:17;9.90;99.90
21310;DHT22;10814;51.722;8.772;2024-03-08T09:32:43;10.00;99.90
21310;DHT22;10814;51.722;8.772;2024-03-08T09:35:09;9.90;99.90
21310;DHT22;10814;51.722;8.772;2024-03-08T09:37:36;9.80;99.90
21310;DHT22;10814;51.722;8.772;2024-03-08T09:40:03;9.90;99.90
21310;DHT22;10814;51.722;8.772;2024-03-08T09:42:35;10.00;99.90
21310;DHT22;10814;51.722;8.772;2024-03-08T09:45:13;10.50;99.90
21310;DHT22;10814;51.722;8.772;2024-03-08T09:47:43;11.00;99.90
21310;DHT22;10814;51.722;8.772;2024-03-08T09:50:10;11.50;99.90
21310;DHT22;10814;51.722;8.772;2024-03-08T09:52:38;12.20;99.90
21310;DHT22;10814;51.722;8.772;2024-03-08T09:55:06;12.80;99.90
21310;DHT22;10814;51.722;8.772;2024-03-08T09:57:36;13.10;99.90
21310;DHT22;10814;51.722;8.772;2024-03-08T10:00:03;13.40;99.90
21310;DHT22;10814;51.722;8.772;2024-03-08T10:02:45;13.40;99.90
21310;DHT22;10814;51.722;8.772;2024-03-08T10:05:12;13.70;99.90
21310;DHT22;10814;51.722;8.772;2024-03-08T10:07:37;14.30;99.90
21310;DHT22;10814;51.722;8.772;2024-03-08T10:10:06;14.90;99.90
21310;DHT22;10814;51.722;8.772;2024-03-08T10:12:34;15.10;99.90
21310;DHT22;10814;51.722;8.772;2024-03-08T10:15:00;15.80;99.90
21310;DHT22;10814;51.722;8.772;2024-03-08T10:17:26;16.50;99.10
21310;DHT22;10814;51.722;8.772;2024-03-08T10:19:52;16.70;97.90
21310;DHT22;10814;51.722;8.772;2024-03-08T10:22:19;16.90;97.50
21310;DHT22;10814;51.722;8.772;2024-03-08T10:24:46;17.20;97.40
21310;DHT22;10814;51.722;8.772;2024-03-08T10:27:12;17.40;96.20
21310;DHT22;10814;51.722;8.772;2024-03-08T10:29:37;17.60;95.80
21310;DHT22;10814;51.722;8.772;2024-03-08T10:32:08;18.00;95.50
21310;DHT22;10814;51.722;8.772;2024-03-08T10:34:34;19.00;94.70
21310;DHT22;10814;51.722;8.772;2024-03-08T10:37:03;19.40;93.60
21310;DHT22;10814;51.722;8.772;2024-03-08T10:39:34;18.90;92.90
21310;DHT22;10814;51.722;8.772;2024-03-08T10:42:03;18.40;93.20
21310;DHT22;10814;51.722;8.772;2024-03-08T10:50:18;18.40;92.70
21310;DHT22;10814;51.722;8.772;2024-03-08T10:52:50;18.50;92.00
21310;DHT22;10814;51.722;8.772;2024-03-08T10:55:18;19.00;91.90
21310;DHT22;10814;51.722;8.772;2024-03-08T10:57:45;19.60;91.00
21310;DHT22;10814;51.722;8.772;2024-03-08T11:00:12;18.90;91.10
21310;DHT22;10814;51.722;8.772;2024-03-08T11:02:38;18.70;90.80
21310;DHT22;10814;51.722;8.772;2024-03-08T11:05:04;18.60;91.10
21310;DHT22;10814;51.722;8.772;2024-03-08T11:07:34;19.20;90.90
21310;DHT22;10814;51.722;8.772;2024-03-08T11:10:02;20.00;90.10
21310;DHT22;10814;51.722;8.772;2024-03-08T11:12:36;19.90;88.70
21310;DHT22;10814;51.722;8.772;2024-03-08T11:15:10;19.90;88.70
21310;DHT22;10814;51.722;8.772;2024-03-08T11:20:12;20.60;87.40
21310;DHT22;10814;51.722;8.772;2024-03-08T11:23:03;20.40;86.80
21310;DHT22;10814;51.722;8.772;2024-03-08T11:25:31;20.40;86.50
21310;DHT22;10814;51.722;8.772;2024-03-08T11:33:35;21.50;83.70
21310;DHT22;10814;51.722;8.772;2024-03-08T11:36:21;22.20;82.70
21310;DHT22;10814;51.722;8.772;2024-03-08T11:38:48;22.20;82.30
21310;DHT22;10814;51.722;8.772;2024-03-08T11:41:24;21.40;81.40
21310;DHT22;10814;51.722;8.772;2024-03-08T11:44:01;21.30;81.30
21310;DHT22;10814;51.722;8.772;2024-03-08T11:46:27;21.20;82.20
21310;DHT22;10814;51.722;8.772;2024-03-08T11:48:54;22.00;81.10
21310;DHT22;10814;51.722;8.772;2024-03-08T11:51:21;22.40;80.00
21310;DHT22;10814;51.722;8.772;2024-03-08T11:53:49;21.90;78.70
21310;DHT22;10814;51.722;8.772;2024-03-08T11:56:15;21.10;79.80
21310;DHT22;10814;51.722;8.772;2024-03-08T11:58:41;21.40;80.00
21310;DHT22;10814;51.722;8.772;2024-03-08T12:01:09;20.80;79.60
21310;DHT22;10814;51.722;8.772;2024-03-08T12:03:41;20.10;79.80
21310;DHT22;10814;51.722;8.772;2024-03-08T12:06:10;19.70;81.50
21310;DHT22;10814;51.722;8.772;2024-03-08T12:08:36;20.10;81.80
21310;DHT22;10814;51.722;8.772;2024-03-08T12:11:05;20.10;81.50
21310;DHT22;10814;51.722;8.772;2024-03-08T12:13:32;20.50;81.60
21310;DHT22;10814;51.722;8.772;2024-03-08T12:16:00;20.80;80.60
21310;DHT22;10814;51.722;8.772;2024-03-08T12:18:26;20.80;80.20
21310;DHT22;10814;51.722;8.772;2024-03-08T12:21:10;21.00;80.30
21310;DHT22;10814;51.722;8.772;2024-03-08T12:23:37;20.90;79.00
21310;DHT22;10814;51.722;8.772;2024-03-08T12:26:17;20.10;80.20
21310;DHT22;10814;51.722;8.772;2024-03-08T12:28:44;20.50;80.70
21310;DHT22;10814;51.722;8.772;2024-03-08T12:31:14;20.30;80.60
21310;DHT22;10814;51.722;8.772;2024-03-08T12:33:51;20.50;80.80
21310;DHT22;10814;51.722;8.772;2024-03-08T12:36:19;21.20;80.10
21310;DHT22;10814;51.722;8.772;2024-03-08T12:38:48;21.40;80.00
21310;DHT22;10814;51.722;8.772;2024-03-08T12:41:15;21.10;78.90
21310;DHT22;10814;51.722;8.772;2024-03-08T12:43:41;21.60;79.10
21310;DHT22;10814;51.722;8.772;2024-03-08T12:46:07;22.50;78.40
21310;DHT22;10814;51.722;8.772;2024-03-08T12:48:35;22.70;77.50
21310;DHT22;10814;51.722;8.772;2024-03-08T12:51:06;21.70;78.00
21310;DHT22;10814;51.722;8.772;2024-03-08T12:53:33;21.30;79.10
21310;DHT22;10814;51.722;8.772;2024-03-08T12:55:58;20.50;78.60
21310;DHT22;10814;51.722;8.772;2024-03-08T12:58:24;19.10;80.00
21310;DHT22;10814;51.722;8.772;2024-03-08T13:00:51;18.30;81.90
21310;DHT22;10814;51.722;8.772;2024-03-08T13:03:17;17.90;83.70
21310;DHT22;10814;51.722;8.772;2024-03-08T13:05:43;17.70;84.20
21310;DHT22;10814;51.722;8.772;2024-03-08T13:08:09;16.90;85.40
21310;DHT22;10814;51.722;8.772;2024-03-08T13:10:42;16.90;85.80
21310;DHT22;10814;51.722;8.772;2024-03-08T13:13:11;16.50;86.70
21310;DHT22;10814;51.722;8.772;2024-03-08T13:15:37;16.20;87.20
21310;DHT22;10814;51.722;8.772;2024-03-08T13:18:03;15.70;87.90
21310;DHT22;10814;51.722;8.772;2024-03-08T13:20:31;15.50;89.20
21310;DHT22;10814;51.722;8.772;2024-03-08T13:22:57;15.40;89.80
21310;DHT22;10814;51.722;8.772;2024-03-08T13:25:24;14.90;90.00
21310;DHT22;10814;51.722;8.772;2024-03-08T13:27:50;15.00;90.50
21310;DHT22;10814;51.722;8.772;2024-03-08T13:30:16;15.00;90.40
21310;DHT22;10814;51.722;8.772;2024-03-08T13:32:44;15.20;90.70
21310;DHT22;10814;51.722;8.772;2024-03-08T13:35:11;15.10;90.40
21310;DHT22;10814;51.722;8.772;2024-03-08T13:37:41;15.00;90.70
21310;DHT22;10814;51.722;8.772;2024-03-08T13:40:08;14.80;90.70
21310;DHT22;10814;51.722;8.772;2024-03-08T13:42:37;14.70;91.20
21310;DHT22;10814;51.722;8.772;2024-03-08T13:45:05;14.80;90.90
21310;DHT22;10814;51.722;8.772;2024-03-08T13:47:32;14.80;91.50
21310;DHT22;10814;51.722;8.772;2024-03-08T13:49:59;14.50;91.00
21310;DHT22;10814;51.722;8.772;2024-03-08T13:52:26;14.30;90.80
21310;DHT22;10814;51.722;8.772;2024-03-08T13:54:54;14.00;91.10
21310;DHT22;10814;51.722;8.772;2024-03-08T13:57:20;13.80;91.30
21310;DHT22;10814;51.722;8.772;2024-03-08T13:59:48;14.00;91.70
21310;DHT22;10814;51.722;8.772;2024-03-08T14:02:14;14.20;91.90
21310;DHT22;10814;51.722;8.772;2024-03-08T14:04:41;14.10;91.10
21310;DHT22;10814;51.722;8.772;2024-03-08T14:07:07;13.70;91.20
21310;DHT22;10814;51.722;8.772;2024-03-08T14:09:34;13.60;91.90
21310;DHT22;10814;51.722;8.772;2024-03-08T14:12:03;13.40;92.20
21310;DHT22;10814;51.722;8.772;2024-03-08T14:14:33;13.40;92.20
21310;DHT22;10814;51.722;8.772;2024-03-08T14:17:03;13.20;92.10
21310;DHT22;10814;51.722;8.772;2024-03-08T14:19:29;12.90;92.20
21310;DHT22;10814;51.722;8.772;2024-03-08T14:22:00;12.80;92.20
21310;DHT22;10814;51.722;8.772;2024-03-08T14:24:25;12.50;92.20
21310;DHT22;10814;51.722;8.772;2024-03-08T14:26:51;12.30;93.10
21310;DHT22;10814;51.722;8.772;2024-03-08T14:29:17;12.40;93.10
21310;DHT22;10814;51.722;8.772;2024-03-08T14:31:44;12.40;93.20
21310;DHT22;10814;51.722;8.772;2024-03-08T14:34:10;12.30;93.20
21310;DHT22;10814;51.722;8.772;2024-03-08T14:36:36;12.10;93.40
21310;DHT22;10814;51.722;8.772;2024-03-08T14:39:01;11.90;93.70
21310;DHT22;10814;51.722;8.772;2024-03-08T14:41:27;11.90;93.90
21310;DHT22;10814;51.722;8.772;2024-03-08T14:43:53;11.70;94.20
21310;DHT22;10814;51.722;8.772;2024-03-08T14:46:19;11.70;94.40
21310;DHT22;10814;51.722;8.772;2024-03-08T14:48:49;11.60;94.40
21310;DHT22;10814;51.722;8.772;2024-03-08T14:51:19;11.60;94.60
21310;DHT22;10814;51.722;8.772;2024-03-08T14:53:52;11.60;94.90
21310;DHT22;10814;51.722;8.772;2024-03-08T14:56:18;11.50;94.70
21310;DHT22;10814;51.722;8.772;2024-03-08T14:58:44;11.50;94.80
21310;DHT22;10814;51.722;8.772;2024-03-08T15:01:10;11.60;95.10
21310;DHT22;10814;51.722;8.772;2024-03-08T15:03:42;11.60;95.20
21310;DHT22;10814;51.722;8.772;2024-03-08T15:06:08;11.60;95.30
21310;DHT22;10814;51.722;8.772;2024-03-08T15:08:38;11.50;95.50
21310;DHT22;10814;51.722;8.772;2024-03-08T15:11:06;11.50;95.60
21310;DHT22;10814;51.722;8.772;2024-03-08T15:13:32;11.60;95.80
21310;DHT22;10814;51.722;8.772;2024-03-08T15:16:08;11.40;95.80
21310;DHT22;10814;51.722;8.772;2024-03-08T15:18:35;11.40;96.00
21310;DHT22;10814;51.722;8.772;2024-03-08T15:21:05;11.30;95.90
21310;DHT22;10814;51.722;8.772;2024-03-08T15:23:36;11.30;95.80
21310;DHT22;10814;51.722;8.772;2024-03-08T15:26:02;11.20;96.20
21310;DHT22;10814;51.722;8.772;2024-03-08T15:28:29;11.00;96.30
21310;DHT22;10814;51.722;8.772;2024-03-08T15:31:05;11.10;96.70
21310;DHT22;10814;51.722;8.772;2024-03-08T15:33:35;11.10;96.50
21310;DHT22;10814;51.722;8.772;2024-03-08T15:36:08;11.00;96.80
21310;DHT22;10814;51.722;8.772;2024-03-08T15:38:35;11.10;97.20
21310;DHT22;10814;51.722;8.772;2024-03-08T15:41:02;11.00;97.30
21310;DHT22;10814;51.722;8.772;2024-03-08T15:43:33;11.00;97.40
21310;DHT22;10814;51.722;8.772;2024-03-08T15:46:02;10.80;97.30
21310;DHT22;10814;51.722;8.772;2024-03-08T15:48:30;10.80;97.60
21310;DHT22;10814;51.722;8.772;2024-03-08T15:50:57;10.70;97.70
21310;DHT22;10814;51.722;8.772;2024-03-08T15:53:22;10.60;97.90